Time;durP1;ratioP1;P1;durP2;ratioP2;P2;SDS_P1;SDS_P2;PMS_P1;PMS_P2;Temp;Humidity;BMP_temperature;BMP_pressure;BME280_temperature;BME280_humidity;BME280_pressure;Samples;Min_cycle;Max_cycle;Signal;HPM_P1;HPM_P2
2022/10/24 00:00:51;;;;;;;24.30;21.60;;;;;;;8.56;100.00;99434.77;427077;1281;143193;-68
2022/10/24 00:10:57;;;;;;;27.20;24.00;;;;;;;8.47;100.00;99422.38;431726;1281;142856;-66
2022/10/24 00:21:03;;;;;;;26.20;23.40;;;;;;;8.43;100.00;99401.48;435879;1279;142328;-67
2022/10/24 00:31:13;;;;;;;26.20;22.50;;;;;;;8.41;100.00;99425.83;431694;1281;142950;-67
2022/10/24 00:41:21;;;;;;;30.10;24.50;;;;;;;8.34;100.00;99420.48;422440;1282;142209;-66
2022/10/24 00:51:30;;;;;;;29.80;25.80;;;;;;;8.38;100.00;99409.40;420482;1276;198843;-67
2022/10/24 01:01:37;;;;;;;33.70;29.20;;;;;;;8.43;100.00;99408.12;420743;1272;181862;-67
2022/10/24 01:12:00;;;;;;;36.00;31.40;;;;;;;8.44;100.00;99389.55;420277;1274;144242;-66
2022/10/24 01:22:12;;;;;;;34.00;28.80;;;;;;;8.46;100.00;99385.40;420387;1275;143466;-66
2022/10/24 01:32:31;;;;;;;33.10;28.70;;;;;;;8.45;100.00;99386.53;421493;1275;142887;-66
2022/10/24 01:42:39;;;;;;;37.10;28.30;;;;;;;8.46;100.00;99374.59;426407;1278;198395;-67
2022/10/24 01:52:47;;;;;;;32.70;28.60;;;;;;;8.52;100.00;99353.70;420564;1281;143679;-67
2022/10/24 02:02:59;;;;;;;34.50;27.40;;;;;;;8.62;100.00;99337.42;419422;1278;142916;-66
2022/10/24 02:13:08;;;;;;;33.80;28.20;;;;;;;8.63;100.00;99326.36;420521;1278;143349;-66
2022/10/24 02:23:20;;;;;;;33.10;26.50;;;;;;;8.56;100.00;99313.66;420845;1271;142993;-67
2022/10/24 02:33:30;;;;;;;30.80;25.50;;;;;;;8.58;100.00;99291.96;421334;1272;152444;-67
2022/10/24 02:43:38;;;;;;;31.30;27.30;;;;;;;8.62;100.00;99301.13;419884;1280;142558;-67
2022/10/24 02:53:43;;;;;;;29.70;25.70;;;;;;;8.65;100.00;99296.73;420437;1274;142153;-66
2022/10/24 03:03:49;;;;;;;32.20;26.90;;;;;;;8.68;100.00;99275.28;420413;1272;143704;-66
2022/10/24 03:13:55;;;;;;;29.30;26.20;;;;;;;8.67;100.00;99268.20;419938;1274;143192;-66
2022/10/24 03:24:01;;;;;;;29.50;25.30;;;;;;;8.71;100.00;99258.01;420151;1272;142501;-66
2022/10/24 03:34:07;;;;;;;28.90;23.90;;;;;;;8.82;100.00;99244.92;421968;1275;142510;-66
2022/10/24 03:44:13;;;;;;;26.50;23.20;;;;;;;8.96;100.00;99216.84;420890;1272;140904;-66
2022/10/24 03:54:19;;;;;;;26.70;23.70;;;;;;;9.04;100.00;99191.35;419312;1274;143304;-66
2022/10/24 04:04:25;;;;;;;26.20;23.40;;;;;;;9.07;100.00;99190.48;420082;1275;142278;-66
2022/10/24 04:14:30;;;;;;;26.70;23.30;;;;;;;9.07;100.00;99213.35;419578;1274;143228;-67
2022/10/24 04:24:38;;;;;;;25.10;22.40;;;;;;;9.10;100.00;99196.22;421370;1272;145600;-67
2022/10/24 04:34:43;;;;;;;24.00;21.20;;;;;;;9.14;100.00;99205.71;421170;1275;142951;-66
2022/10/24 04:44:49;;;;;;;26.90;23.00;;;;;;;9.21;100.00;99229.90;420440;1279;144059;-66
2022/10/24 04:54:55;;;;;;;29.60;24.60;;;;;;;9.29;100.00;99229.11;420977;1272;142781;-68
2022/10/24 05:05:01;;;;;;;25.00;22.50;;;;;;;9.34;100.00;99219.14;424573;1275;141857;-67
2022/10/24 05:15:08;;;;;;;23.30;19.90;;;;;;;9.48;100.00;99214.37;435995;1281;143135;-67
2022/10/24 05:25:14;;;;;;;23.60;18.80;;;;;;;9.65;100.00;99210.16;422551;1273;142116;-67
2022/10/24 05:35:20;;;;;;;21.80;18.20;;;;;;;9.76;100.00;99209.60;424585;1274;141959;-68
2022/10/24 05:45:26;;;;;;;20.20;18.20;;;;;;;9.85;100.00;99212.33;427967;1274;143760;-66
2022/10/24 05:55:33;;;;;;;20.30;16.90;;;;;;;9.93;100.00;99218.58;436733;1276;143421;-68
2022/10/24 06:05:39;;;;;;;20.10;15.70;;;;;;;10.10;100.00;99233.02;435929;1281;145489;-73
2022/10/24 06:15:45;;;;;;;19.20;15.70;;;;;;;10.33;100.00;99233.27;425252;1274;144741;-75
2022/10/24 06:25:50;;;;;;;18.70;16.70;;;;;;;10.47;100.00;99236.31;436716;1281;143294;-74
2022/10/24 06:35:58;;;;;;;18.20;16.00;;;;;;;10.62;100.00;99239.34;431923;1282;143297;-74
2022/10/24 06:46:08;;;;;;;18.10;14.60;;;;;;;10.76;100.00;99239.97;419656;1282;142855;-73
2022/10/24 06:56:14;;;;;;;22.10;15.90;;;;;;;10.83;100.00;99246.86;436745;1282;142065;-74
2022/10/24 07:06:23;;;;;;;18.60;16.00;;;;;;;10.99;100.00;99244.45;436203;1289;213306;-74
2022/10/24 07:16:29;;;;;;;16.30;13.60;;;;;;;11.29;100.00;99249.33;436754;1281;143328;-73
2022/10/24 07:26:34;;;;;;;15.20;12.20;;;;;;;11.67;100.00;99257.44;435966;1281;143979;-73
2022/10/24 07:36:40;;;;;;;13.80;12.40;;;;;;;12.12;100.00;99265.38;435632;1275;143957;-74
2022/10/24 07:46:48;;;;;;;13.90;12.50;;;;;;;12.75;100.00;99267.11;423864;1274;145703;-74
2022/10/24 07:56:54;;;;;;;13.80;12.30;;;;;;;13.21;99.48;99254.16;432632;1275;142889;-73
2022/10/24 08:07:00;;;;;;;11.30;9.90;;;;;;;13.60;98.66;99260.08;432422;1282;142128;-75
2022/10/24 08:17:06;;;;;;;11.30;10.20;;;;;;;14.01;97.23;99256.86;436726;1274;142046;-74
2022/10/24 08:27:13;;;;;;;9.70;8.20;;;;;;;14.25;95.80;99243.22;436049;1281;142503;-74
2022/10/24 08:37:19;;;;;;;8.20;7.50;;;;;;;14.57;94.76;99232.63;430069;1281;196290;-73
2022/10/24 08:47:35;;;;;;;8.40;7.50;;;;;;;15.05;93.33;99238.73;419574;1275;142563;-72
2022/10/24 08:57:47;;;;;;;9.00;7.30;;;;;;;15.39;91.97;99221.63;423972;1274;141854;-73
2022/10/24 09:08:00;;;;;;;7.90;6.90;;;;;;;15.29;90.77;99241.39;436763;1281;143618;-74
2022/10/24 09:18:18;;;;;;;7.40;6.70;;;;;;;15.10;90.08;99248.55;435986;1281;142550;-73
2022/10/24 09:28:25;;;;;;;9.10;6.10;;;;;;;14.95;89.68;99256.00;436665;1274;142094;-74
2022/10/24 09:38:34;;;;;;;6.80;6.00;;;;;;;15.11;89.72;99240.84;435158;1282;142250;-73
2022/10/24 09:48:51;;;;;;;5.20;4.80;;;;;;;15.36;89.06;99232.94;436735;1281;183728;-73
2022/10/24 09:58:57;;;;;;;6.00;4.90;;;;;;;15.63;88.32;99231.95;427628;1281;142258;-72
2022/10/24 10:09:11;;;;;;;9.80;6.20;;;;;;;15.80;87.72;99230.40;430479;1282;142362;-73
2022/10/24 10:19:18;;;;;;;5.00;4.60;;;;;;;16.00;86.91;99239.98;436733;1281;142600;-73
2022/10/24 10:29:25;;;;;;;6.40;4.30;;;;;;;16.28;86.19;99253.25;435992;1281;144730;-73
2022/10/24 10:39:45;;;;;;;5.60;4.10;;;;;;;16.53;85.20;99252.52;435835;1281;143425;-73
2022/10/24 10:49:55;;;;;;;3.50;3.20;;;;;;;16.74;84.56;99251.27;436678;1274;142984;-73
2022/10/24 11:00:08;;;;;;;8.80;4.80;;;;;;;17.22;83.82;99242.63;436027;1282;142348;-73
2022/10/24 11:10:19;;;;;;;4.30;3.90;;;;;;;17.45;82.74;99243.94;436737;1287;142571;-73
2022/10/24 11:20:29;;;;;;;5.70;3.20;;;;;;;17.48;82.17;99240.67;435894;1282;183658;-73
2022/10/24 11:30:50;;;;;;;4.70;3.70;;;;;;;17.68;81.91;99231.63;436701;1289;143286;-74
2022/10/24 11:41:03;;;;;;;5.40;3.10;;;;;;;17.68;81.13;99217.45;431753;1281;142211;-73
2022/10/24 11:51:19;;;;;;;7.10;3.00;;;;;;;17.67;80.85;99201.42;435634;1274;142742;-73
2022/10/24 12:01:46;;;;;;;5.20;2.80;;;;;;;17.80;80.39;99182.36;426911;1281;142831;-73
2022/10/24 12:12:14;;;;;;;6.20;2.90;;;;;;;17.88;79.80;99183.05;431782;1281;142810;-73
2022/10/24 12:22:26;;;;;;;6.00;3.50;;;;;;;17.98;79.15;99176.41;437026;1282;141956;-74
2022/10/24 12:32:41;;;;;;;8.50;7.00;;;;;;;18.10;78.89;99173.61;431949;1281;142422;-73
2022/10/24 12:43:15;;;;;;;10.50;3.00;;;;;;;18.19;78.49;99164.03;428655;1289;145528;-72
2022/10/24 12:53:50;;;;;;;6.70;3.20;;;;;;;18.09;78.34;99158.53;433895;1281;142713;-70
2022/10/24 13:04:20;;;;;;;5.70;3.20;;;;;;;18.09;78.47;99152.31;436515;1287;234495;-73
2022/10/24 13:14:52;;;;;;;4.60;3.10;;;;;;;18.30;78.14;99152.98;435898;1280;142595;-72
2022/10/24 13:24:59;;;;;;;6.40;2.50;;;;;;;18.36;77.53;99154.74;436669;1286;141952;-73
2022/10/24 13:35:14;;;;;;;8.10;3.00;;;;;;;18.26;77.63;99157.55;436734;1287;145860;-73
2022/10/24 13:45:27;;;;;;;4.10;2.80;;;;;;;18.14;77.87;99158.38;432967;1275;141881;-72
2022/10/24 13:55:37;;;;;;;8.40;3.70;;;;;;;18.03;78.03;99163.00;436712;1281;143852;-72
2022/10/24 14:05:47;;;;;;;6.80;2.90;;;;;;;18.03;78.23;99171.31;436052;1288;142764;-72
2022/10/24 14:15:56;;;;;;;5.60;3.80;;;;;;;18.03;78.09;99174.73;436775;1274;144020;-73
2022/10/24 14:26:05;;;;;;;9.70;3.80;;;;;;;17.89;78.41;99182.96;436764;1281;142700;-73
2022/10/24 14:36:13;;;;;;;4.50;3.00;;;;;;;17.72;78.46;99184.65;436021;1280;142777;-74
2022/10/24 14:46:35;;;;;;;7.30;3.80;;;;;;;17.47;78.81;99195.26;425247;1282;141921;-74
2022/10/24 14:56:41;;;;;;;11.80;4.60;;;;;;;17.22;79.41;99201.66;436044;1279;144140;-72
2022/10/24 15:06:46;;;;;;;7.90;5.10;;;;;;;16.90;79.93;99203.26;436681;1283;143076;-73
2022/10/24 15:16:52;;;;;;;13.10;6.90;;;;;;;16.55;80.60;99193.34;424198;1288;141684;-72
2022/10/24 15:27:12;;;;;;;16.10;9.80;;;;;;;16.15;81.30;99187.70;420034;1281;143357;-74
2022/10/24 15:37:23;;;;;;;25.00;13.20;;;;;;;15.70;82.03;99198.33;422208;1288;142728;-73
2022/10/24 15:47:30;;;;;;;36.80;24.60;;;;;;;15.22;82.89;99197.88;419147;1280;143145;-73
2022/10/24 15:57:36;;;;;;;17.20;11.40;;;;;;;14.86;83.96;99193.54;420401;1275;142325;-73
2022/10/24 16:07:42;;;;;;;22.40;14.10;;;;;;;14.57;84.90;99199.81;420971;1281;142822;-74
2022/10/24 16:17:48;;;;;;;20.30;11.00;;;;;;;14.31;85.55;99206.48;421129;1281;143308;-73
2022/10/24 16:27:54;;;;;;;21.50;12.80;;;;;;;14.07;86.24;99204.14;421820;1281;143556;-75
2022/10/24 16:38:01;;;;;;;19.20;12.40;;;;;;;13.88;86.96;99218.20;422201;1281;141141;-73
2022/10/24 16:48:07;;;;;;;33.80;26.70;;;;;;;13.66;87.47;99228.56;421751;1275;143283;-74
2022/10/24 16:58:13;;;;;;;18.70;15.70;;;;;;;13.50;88.43;99220.20;421744;1281;142798;-74
2022/10/24 17:08:20;;;;;;;28.10;21.10;;;;;;;13.30;88.91;99217.23;421294;1281;141774;-74
2022/10/24 17:18:26;;;;;;;24.30;19.30;;;;;;;13.25;89.59;99206.59;421054;1278;215262;-75
2022/10/24 17:28:32;;;;;;;22.30;16.90;;;;;;;13.16;90.08;99215.92;421140;1283;143400;-74
2022/10/24 17:38:43;;;;;;;24.10;15.30;;;;;;;13.05;90.31;99220.14;420579;1278;142338;-75
2022/10/24 17:48:49;;;;;;;29.20;17.50;;;;;;;12.91;90.50;99212.06;420642;1275;142660;-74
2022/10/24 17:58:55;;;;;;;28.80;22.40;;;;;;;12.80;91.00;99206.98;420786;1278;142474;-75
2022/10/24 18:09:01;;;;;;;29.60;18.40;;;;;;;12.72;91.40;99207.13;420931;1282;144071;-73
2022/10/24 18:19:08;;;;;;;27.60;18.40;;;;;;;12.57;91.64;99212.64;422364;1281;142718;-71
2022/10/24 18:29:14;;;;;;;19.40;14.00;;;;;;;12.53;92.25;99221.73;420788;1275;141827;-72
2022/10/24 18:39:20;;;;;;;20.80;14.80;;;;;;;12.55;93.40;99222.77;419962;1280;144378;-73
2022/10/24 18:49:30;;;;;;;22.40;18.20;;;;;;;12.65;94.39;99221.52;422153;1278;142467;-72
2022/10/24 18:59:36;;;;;;;19.10;16.20;;;;;;;12.79;95.00;99220.96;435850;1278;143422;-72
2022/10/24 19:09:42;;;;;;;20.70;16.30;;;;;;;12.84;95.06;99212.27;436639;1281;142957;-72
2022/10/24 19:19:50;;;;;;;20.20;14.60;;;;;;;12.90;95.28;99199.02;425478;1278;144298;-72
2022/10/24 19:29:55;;;;;;;18.40;14.40;;;;;;;12.91;95.26;99202.11;419924;1275;142044;-71
2022/10/24 19:40:01;;;;;;;17.00;14.10;;;;;;;12.85;95.32;99200.84;419903;1279;142613;-72
2022/10/24 19:50:11;;;;;;;18.30;15.20;;;;;;;12.86;95.73;99203.69;420531;1279;142985;-72
2022/10/24 20:00:18;;;;;;;18.30;16.40;;;;;;;12.87;95.86;99199.89;419957;1275;142750;-73
2022/10/24 20:10:24;;;;;;;26.00;19.30;;;;;;;12.88;95.98;99192.83;420246;1273;186243;-72
2022/10/24 20:20:30;;;;;;;22.60;19.00;;;;;;;12.84;95.88;99186.98;419817;1282;142109;-72
2022/10/24 20:30:41;;;;;;;27.40;18.00;;;;;;;12.82;95.83;99190.71;420349;1272;143053;-73
2022/10/24 20:40:47;;;;;;;22.00;15.80;;;;;;;12.82;96.01;99201.21;420339;1272;145181;-72
2022/10/24 20:50:53;;;;;;;19.50;16.70;;;;;;;12.68;96.03;99220.25;420052;1274;142498;-73
2022/10/24 21:01:04;;;;;;;20.00;16.10;;;;;;;12.73;96.99;99232.45;422241;1279;146026;-74
2022/10/24 21:11:14;;;;;;;19.20;13.80;;;;;;;12.84;97.35;99241.75;421386;1280;147299;-72
2022/10/24 21:21:21;;;;;;;16.60;14.30;;;;;;;12.94;97.49;99246.80;419993;1279;141762;-72
2022/10/24 21:31:27;;;;;;;19.20;13.40;;;;;;;12.93;97.69;99251.50;421016;1274;143849;-72
2022/10/24 21:41:34;;;;;;;15.70;13.80;;;;;;;12.89;98.13;99249.14;419265;1275;142892;-71
2022/10/24 21:51:42;;;;;;;15.40;12.20;;;;;;;12.88;98.34;99248.65;419965;1274;143229;-71
2022/10/24 22:01:50;;;;;;;16.60;11.90;;;;;;;12.87;98.59;99250.70;420358;1274;142005;-71
2022/10/24 22:11:56;;;;;;;12.90;9.90;;;;;;;12.87;98.88;99252.98;420685;1275;142733;-72
2022/10/24 22:22:02;;;;;;;12.70;11.30;;;;;;;12.87;99.06;99253.33;420149;1275;142840;-72
2022/10/24 22:32:14;;;;;;;16.40;12.70;;;;;;;12.82;99.27;99247.74;420067;1274;143096;-72
2022/10/24 22:42:20;;;;;;;11.80;10.30;;;;;;;12.81;99.71;99244.52;419417;1275;142231;-72
2022/10/24 22:52:28;;;;;;;11.50;10.00;;;;;;;12.79;99.98;99244.48;420121;1274;146557;-71
2022/10/24 23:02:39;;;;;;;15.60;12.70;;;;;;;12.70;99.98;99248.14;419252;1274;144464;-71
2022/10/24 23:12:47;;;;;;;18.30;11.30;;;;;;;12.63;100.00;99249.91;420277;1275;142713;-71
2022/10/24 23:22:55;;;;;;;17.40;11.60;;;;;;;12.60;100.00;99256.67;421414;1275;143892;-72
2022/10/24 23:33:26;;;;;;;13.90;10.80;;;;;;;12.55;100.00;99248.45;420480;1275;211430;-73
2022/10/24 23:43:32;;;;;;;12.20;10.40;;;;;;;12.47;100.00;99262.69;421525;1275;141675;-72
2022/10/24 23:53:50;;;;;;;10.00;8.00;;;;;;;12.39;100.00;99268.44;420204;1274;143463;-72
